Time;durP1;ratioP1;P1;durP2;ratioP2;P2;SDS_P1;SDS_P2;PMS_P1;PMS_P2;Temp;Humidity;BMP_temperature;BMP_pressure;BME280_temperature;BME280_humidity;BME280_pressure;Samples;Min_cycle;Max_cycle;Signal;HPM_P1;HPM_P2
2024/01/06 00:01:03;;;;;;;29.02;14.55;;;;;;;-1.98;88.49;99768.55;1647685;87;27324;-50
2024/01/06 00:03:31;;;;;;;27.20;13.85;;;;;;;-1.96;88.65;99770.96;1647913;87;25416;-48
2024/01/06 00:05:59;;;;;;;26.93;14.47;;;;;;;-1.96;88.68;99782.39;1647978;87;25105;-50
2024/01/06 00:08:26;;;;;;;26.00;13.95;;;;;;;-1.99;88.78;99775.41;1646309;87;25516;-47
2024/01/06 00:10:54;;;;;;;29.42;13.98;;;;;;;-1.98;88.85;99772.52;1648007;87;25406;-48
2024/01/06 00:13:21;;;;;;;27.40;13.98;;;;;;;-2.00;88.84;99773.29;1648043;87;27398;-49
2024/01/06 00:15:47;;;;;;;26.90;14.10;;;;;;;-2.01;88.88;99786.78;1647949;87;25429;-48
2024/01/06 00:18:14;;;;;;;25.75;13.28;;;;;;;-2.01;89.06;99780.98;1662782;85;25471;-48
2024/01/06 00:20:40;;;;;;;24.20;13.62;;;;;;;-2.03;89.26;99781.71;1662264;86;26284;-48
2024/01/06 00:23:07;;;;;;;29.90;14.53;;;;;;;-2.03;89.38;99788.87;1662351;85;25444;-48
2024/01/06 00:25:34;;;;;;;28.73;13.50;;;;;;;-2.04;89.59;99793.88;1662337;85;27902;-51
2024/01/06 00:28:00;;;;;;;25.08;14.95;;;;;;;-2.04;89.52;99781.45;1662215;85;25449;-48
2024/01/06 00:30:27;;;;;;;23.02;13.55;;;;;;;-2.04;89.57;99777.47;1662344;86;25469;-49
2024/01/06 00:32:53;;;;;;;26.90;12.80;;;;;;;-2.03;89.64;99789.66;1662443;84;25598;-48
2024/01/06 00:35:20;;;;;;;24.37;12.55;;;;;;;-2.04;89.67;99792.55;1662331;86;25404;-49
2024/01/06 00:37:46;;;;;;;65.90;34.70;;;;;;;-2.04;89.74;99792.55;1662599;86;27281;-50
2024/01/06 00:40:13;;;;;;;28.45;16.35;;;;;;;-2.03;90.10;99787.55;1662079;86;25510;-48
2024/01/06 00:42:40;;;;;;;23.80;12.68;;;;;;;-2.01;89.98;99793.41;1662558;86;25415;-48
2024/01/06 00:45:07;;;;;;;22.98;12.75;;;;;;;-2.02;89.82;99796.58;1662200;85;25602;-47
2024/01/06 00:47:34;;;;;;;21.20;12.45;;;;;;;-2.04;89.73;99800.00;1659963;86;25437;-50
2024/01/06 00:50:00;;;;;;;20.92;11.85;;;;;;;-2.05;89.81;99793.61;1659919;86;27330;-50
2024/01/06 00:52:27;;;;;;;22.52;11.63;;;;;;;-2.06;89.80;99788.80;1659835;86;25664;-48
2024/01/06 00:54:54;;;;;;;24.43;11.35;;;;;;;-2.07;89.83;99785.89;1662361;86;25480;-48
2024/01/06 00:57:23;;;;;;;20.45;10.18;;;;;;;-2.11;89.68;99782.91;1662208;85;25688;-47
2024/01/06 00:59:49;;;;;;;18.02;10.72;;;;;;;-2.13;89.69;99785.00;1662108;86;25896;-47
2024/01/06 01:02:15;;;;;;;19.92;10.30;;;;;;;-2.17;89.62;99780.41;1662355;86;27338;-48
2024/01/06 01:04:42;;;;;;;19.70;10.90;;;;;;;-2.19;89.81;99773.22;1662655;86;25806;-50
2024/01/06 01:07:08;;;;;;;17.40;9.53;;;;;;;-2.21;89.97;99771.30;1662455;85;25428;-47
2024/01/06 01:09:35;;;;;;;18.52;10.40;;;;;;;-2.22;90.10;99764.41;1662495;86;25679;-48
2024/01/06 01:12:02;;;;;;;15.60;8.83;;;;;;;-2.26;90.17;99766.21;1662514;86;25406;-47
2024/01/06 01:14:28;;;;;;;19.00;9.50;;;;;;;-2.28;90.12;99758.23;1663010;85;27880;-47
2024/01/06 01:16:55;;;;;;;18.27;9.63;;;;;;;-2.30;90.19;99758.46;1662916;85;25703;-46
2024/01/06 01:19:21;;;;;;;17.37;9.70;;;;;;;-2.32;90.31;99747.80;1660450;85;25458;-49
2024/01/06 01:21:48;;;;;;;18.67;9.85;;;;;;;-2.32;90.45;99748.59;1664813;85;25697;-47
2024/01/06 01:24:14;;;;;;;19.42;10.23;;;;;;;-2.34;90.39;99735.32;1660140;85;25459;-47
2024/01/06 01:26:41;;;;;;;16.32;9.95;;;;;;;-2.37;90.40;99744.53;1660200;85;27368;-48
2024/01/06 01:29:07;;;;;;;19.02;9.20;;;;;;;-2.42;90.40;99748.41;1660148;84;25432;-48
2024/01/06 01:31:34;;;;;;;17.15;9.28;;;;;;;-2.44;90.47;99755.80;1661111;85;25531;-48
2024/01/06 01:34:01;;;;;;;16.73;9.95;;;;;;;-2.45;90.61;99755.53;1660681;85;26337;-49
2024/01/06 01:36:27;;;;;;;17.42;10.03;;;;;;;-2.45;90.74;99760.30;1660345;85;25453;-48
2024/01/06 01:38:54;;;;;;;16.60;9.75;;;;;;;-2.48;90.81;99762.09;1660638;85;27302;-48
2024/01/06 01:41:20;;;;;;;16.40;9.80;;;;;;;-2.47;91.06;99764.20;1659967;85;25655;-46
2024/01/06 01:43:47;;;;;;;17.37;10.13;;;;;;;-2.49;91.21;99761.00;1660329;85;25414;-49
2024/01/06 01:46:14;;;;;;;18.02;9.78;;;;;;;-2.51;91.11;99761.75;1659897;85;25670;-48
2024/01/06 01:48:40;;;;;;;17.17;9.80;;;;;;;-2.52;91.26;99754.34;1660207;85;25498;-48
2024/01/06 01:51:08;;;;;;;18.25;11.12;;;;;;;-2.52;91.39;99760.13;1660107;85;27379;-48
2024/01/06 01:53:35;;;;;;;17.75;10.55;;;;;;;-2.51;91.47;99767.84;1660022;85;25476;-48
2024/01/06 01:56:01;;;;;;;17.27;9.15;;;;;;;-2.52;91.54;99759.64;1659938;85;25443;-47
2024/01/06 01:58:28;;;;;;;18.73;9.63;;;;;;;-2.52;91.53;99770.73;1664321;85;25645;-49
2024/01/06 02:00:55;;;;;;;18.77;9.28;;;;;;;-2.51;91.66;99757.78;1659931;86;25395;-47
2024/01/06 02:03:22;;;;;;;14.75;9.63;;;;;;;-2.48;91.72;99764.73;1659904;85;27390;-47
2024/01/06 02:05:49;;;;;;;16.35;9.03;;;;;;;-2.49;91.70;99764.44;1663830;86;25629;-47
2024/01/06 02:08:16;;;;;;;14.58;8.93;;;;;;;-2.47;91.69;99758.41;1659859;86;25442;-49
2024/01/06 02:10:42;;;;;;;14.63;8.43;;;;;;;-2.47;91.75;99753.61;1660238;85;25639;-48
2024/01/06 02:13:12;;;;;;;13.03;8.13;;;;;;;-2.46;91.76;99756.03;1660097;85;25484;-48
2024/01/06 02:15:38;;;;;;;16.32;9.28;;;;;;;-2.47;91.69;99750.96;1660372;85;27524;-48
2024/01/06 02:18:06;;;;;;;13.32;8.45;;;;;;;-2.45;91.70;99747.58;1653266;85;25449;-47
2024/01/06 02:20:33;;;;;;;16.42;8.78;;;;;;;-2.44;91.75;99748.64;1650121;86;25424;-47
2024/01/06 02:23:00;;;;;;;15.75;8.83;;;;;;;-2.44;91.74;99746.52;1621416;88;25619;-47
2024/01/06 02:25:27;;;;;;;14.13;9.25;;;;;;;-2.44;91.59;99747.84;1650123;86;25411;-47
2024/01/06 02:27:53;;;;;;;14.85;8.78;;;;;;;-2.44;91.69;99745.20;1620765;88;27394;-48
2024/01/06 02:30:20;;;;;;;17.45;9.25;;;;;;;-2.46;91.78;99738.81;1650093;86;25548;-48
2024/01/06 02:32:46;;;;;;;17.23;9.50;;;;;;;-2.45;91.70;99739.64;1604456;89;25430;-48
2024/01/06 02:35:13;;;;;;;18.27;9.28;;;;;;;-2.46;91.82;99741.46;1650071;86;26286;-47
2024/01/06 02:37:40;;;;;;;16.73;9.50;;;;;;;-2.46;91.71;99738.81;1650115;87;25541;-48
2024/01/06 02:40:08;;;;;;;14.87;9.93;;;;;;;-2.45;91.69;99736.45;1649985;86;27406;-47
2024/01/06 02:42:34;;;;;;;17.67;9.43;;;;;;;-2.48;91.77;99728.19;1604240;89;25464;-47
2024/01/06 02:45:01;;;;;;;18.40;9.58;;;;;;;-2.47;91.93;99733.75;1649870;87;25452;-48
2024/01/06 02:47:27;;;;;;;18.80;10.90;;;;;;;-2.46;91.83;99740.14;1650087;86;26342;-48
2024/01/06 02:49:54;;;;;;;17.23;9.88;;;;;;;-2.45;91.97;99731.69;1650280;86;25465;-47
2024/01/06 02:52:22;;;;;;;22.30;12.07;;;;;;;-2.46;91.86;99728.22;1650104;87;27394;-48
2024/01/06 02:54:49;;;;;;;20.10;11.50;;;;;;;-2.45;92.10;99721.89;1649864;86;25777;-49
2024/01/06 02:57:15;;;;;;;20.77;11.65;;;;;;;-2.45;91.94;99729.05;1604378;89;25485;-48
2024/01/06 02:59:41;;;;;;;19.70;10.70;;;;;;;-2.45;92.07;99727.19;1631743;87;25615;-47
2024/01/06 03:02:08;;;;;;;17.90;10.38;;;;;;;-2.43;92.17;99736.23;1604889;88;25439;-47
2024/01/06 03:04:35;;;;;;;20.95;12.43;;;;;;;-2.43;92.18;99728.28;1631828;87;28234;-47
2024/01/06 03:07:01;;;;;;;21.55;11.50;;;;;;;-2.40;92.32;99724.34;1604329;88;25449;-48
2024/01/06 03:09:28;;;;;;;22.75;11.60;;;;;;;-2.38;92.30;99728.88;1632483;87;25425;-47
2024/01/06 03:11:54;;;;;;;20.77;12.47;;;;;;;-2.39;92.23;99728.08;1632330;87;25603;-47
2024/01/06 03:14:21;;;;;;;19.73;11.50;;;;;;;-2.39;92.23;99718.02;1604596;88;25489;-47
2024/01/06 03:16:48;;;;;;;19.48;11.12;;;;;;;-2.39;92.10;99716.69;1631806;88;27357;-48
2024/01/06 03:19:14;;;;;;;21.85;11.25;;;;;;;-2.39;92.24;99716.16;1659472;85;25636;-47
2024/01/06 03:21:41;;;;;;;19.92;11.48;;;;;;;-2.37;92.15;99721.22;1660156;86;25546;-49
2024/01/06 03:24:09;;;;;;;18.37;11.28;;;;;;;-2.37;92.07;99727.31;1660199;85;26223;-46
2024/01/06 03:26:35;;;;;;;19.73;11.88;;;;;;;-2.40;92.01;99733.11;1659761;86;25464;-47
2024/01/06 03:29:02;;;;;;;22.22;12.10;;;;;;;-2.41;91.97;99726.19;1660076;86;27403;-47
2024/01/06 03:31:30;;;;;;;26.30;12.05;;;;;;;-2.42;91.88;99726.42;1659557;86;25419;-47
2024/01/06 03:33:56;;;;;;;19.57;11.95;;;;;;;-2.44;92.04;99729.31;1660090;86;25422;-47
2024/01/06 03:36:23;;;;;;;22.85;11.97;;;;;;;-2.40;92.39;99726.98;1660067;86;25649;-49
2024/01/06 03:38:50;;;;;;;22.65;12.73;;;;;;;-2.39;92.37;99728.08;1660456;85;25487;-48
2024/01/06 03:41:16;;;;;;;21.30;11.60;;;;;;;-2.38;92.43;99720.92;1660080;86;27392;-47
2024/01/06 03:43:42;;;;;;;22.25;12.73;;;;;;;-2.37;92.51;99715.39;1659977;85;25414;-48
2024/01/06 03:46:09;;;;;;;22.10;12.25;;;;;;;-2.37;92.60;99722.02;1660216;86;25434;-47
2024/01/06 03:48:36;;;;;;;20.70;11.68;;;;;;;-2.35;92.70;99709.86;1660304;86;25587;-48
2024/01/06 03:51:03;;;;;;;23.05;12.70;;;;;;;-2.36;92.53;99714.36;1660094;86;25443;-47
2024/01/06 03:53:30;;;;;;;17.95;11.05;;;;;;;-2.34;92.77;99717.58;1660159;86;27515;-48
2024/01/06 03:55:57;;;;;;;21.07;11.95;;;;;;;-2.33;92.84;99723.16;1660506;85;25630;-51
2024/01/06 03:58:23;;;;;;;19.45;12.18;;;;;;;-2.31;92.78;99725.58;1659825;86;25490;-51
2024/01/06 04:00:50;;;;;;;20.75;12.15;;;;;;;-2.32;92.71;99721.31;1660043;86;26380;-48
2024/01/06 04:03:16;;;;;;;20.57;12.43;;;;;;;-2.30;92.81;99715.25;1661253;85;25434;-47
2024/01/06 04:05:43;;;;;;;22.80;12.85;;;;;;;-2.34;92.65;99714.92;1660173;85;27431;-48
2024/01/06 04:08:10;;;;;;;21.23;12.50;;;;;;;-2.35;92.76;99712.51;1660708;85;25420;-48
2024/01/06 04:10:36;;;;;;;21.52;12.00;;;;;;;-2.37;92.82;99718.04;1660104;86;25413;-50
2024/01/06 04:13:03;;;;;;;21.15;12.28;;;;;;;-2.37;92.91;99723.34;1660897;85;25632;-48
2024/01/06 04:15:29;;;;;;;24.55;12.82;;;;;;;-2.35;93.03;99732.38;1660585;85;25431;-48
2024/01/06 04:17:56;;;;;;;22.22;13.32;;;;;;;-2.35;93.09;99732.38;1656690;85;27273;-48
2024/01/06 04:20:23;;;;;;;20.40;12.05;;;;;;;-2.34;93.21;99734.00;1650124;87;25488;-49
2024/01/06 04:22:50;;;;;;;21.27;11.55;;;;;;;-2.32;93.35;99739.33;1650198;86;25548;-47
2024/01/06 04:25:16;;;;;;;20.45;11.85;;;;;;;-2.31;93.46;99730.88;1648977;86;26338;-48
2024/01/06 04:27:44;;;;;;;19.80;11.75;;;;;;;-2.29;93.54;99736.20;1650390;86;25397;-50
2024/01/06 04:30:12;;;;;;;22.15;12.68;;;;;;;-2.27;93.61;99732.80;1650277;86;27368;-48
2024/01/06 04:32:39;;;;;;;18.25;10.48;;;;;;;-2.26;93.66;99729.11;1650214;86;25490;-49
2024/01/06 04:35:06;;;;;;;19.82;11.48;;;;;;;-2.23;93.57;99729.67;1650265;86;25422;-49
2024/01/06 04:37:33;;;;;;;18.65;11.40;;;;;;;-2.23;93.67;99730.50;1649924;86;25678;-51
2024/01/06 04:40:00;;;;;;;21.60;11.45;;;;;;;-2.21;93.54;99736.36;1650459;86;25473;-48
2024/01/06 04:42:26;;;;;;;18.55;11.53;;;;;;;-2.21;93.46;99738.19;1650219;86;27445;-48
2024/01/06 04:44:53;;;;;;;17.52;10.82;;;;;;;-2.23;93.41;99741.10;1649952;87;25725;-48
2024/01/06 04:47:20;;;;;;;19.05;10.68;;;;;;;-2.23;93.41;99742.92;1650401;86;25429;-49
2024/01/06 04:49:46;;;;;;;22.32;11.38;;;;;;;-2.23;93.37;99739.77;1650069;87;25657;-48
2024/01/06 04:52:13;;;;;;;19.45;10.50;;;;;;;-2.23;93.42;99742.42;1649887;87;25537;-48
2024/01/06 04:54:39;;;;;;;19.35;10.72;;;;;;;-2.23;93.60;99745.08;1650345;86;27377;-50
2024/01/06 04:57:06;;;;;;;18.95;10.55;;;;;;;-2.21;93.64;99742.16;1649874;87;25726;-48
2024/01/06 04:59:32;;;;;;;19.98;11.53;;;;;;;-2.20;93.64;99750.41;1650189;87;25457;-48
2024/01/06 05:01:59;;;;;;;18.98;10.35;;;;;;;-2.19;93.68;99755.47;1650026;86;26353;-49
2024/01/06 05:04:26;;;;;;;20.92;12.10;;;;;;;-2.18;93.75;99753.11;1650214;87;25511;-48
2024/01/06 05:06:53;;;;;;;18.82;11.22;;;;;;;-2.17;93.79;99761.33;1650162;86;27294;-48
2024/01/06 05:09:19;;;;;;;18.48;10.48;;;;;;;-2.16;93.75;99765.59;1650008;87;25663;-49
2024/01/06 05:11:46;;;;;;;19.37;11.90;;;;;;;-2.15;93.78;99757.12;1650206;86;25460;-49
2024/01/06 05:14:13;;;;;;;20.92;11.40;;;;;;;-2.16;93.61;99759.47;1650299;86;26156;-50
2024/01/06 05:16:39;;;;;;;17.77;10.50;;;;;;;-2.16;93.52;99751.52;1649883;86;25472;-50
2024/01/06 05:19:06;;;;;;;18.80;11.20;;;;;;;-2.17;93.55;99756.03;1626053;86;27490;-49
2024/01/06 05:21:33;;;;;;;19.80;10.48;;;;;;;-2.16;93.60;99747.05;1604706;89;25576;-51
2024/01/06 05:24:00;;;;;;;18.27;11.05;;;;;;;-2.17;93.52;99745.95;1630485;88;25491;-49
2024/01/06 05:26:27;;;;;;;19.00;10.70;;;;;;;-2.19;93.32;99740.10;1630473;88;25591;-50
2024/01/06 05:28:53;;;;;;;18.92;10.78;;;;;;;-2.22;93.31;99747.98;1603196;89;25475;-49
2024/01/06 05:31:20;;;;;;;17.60;10.75;;;;;;;-2.23;93.41;99757.50;1630471;88;26915;-48
2024/01/06 05:33:46;;;;;;;20.17;10.80;;;;;;;-2.24;93.39;99759.35;1603067;89;25491;-49
2024/01/06 05:36:13;;;;;;;18.45;11.35;;;;;;;-2.26;93.39;99763.56;1630495;88;25407;-50
2024/01/06 05:38:40;;;;;;;19.30;11.60;;;;;;;-2.26;93.58;99760.91;1603173;89;25588;-51
2024/01/06 05:41:07;;;;;;;19.23;10.90;;;;;;;-2.24;93.66;99769.95;1603213;89;25472;-48
2024/01/06 05:43:33;;;;;;;18.98;11.48;;;;;;;-2.23;93.70;99773.39;1630496;88;27875;-48
2024/01/06 05:46:00;;;;;;;21.17;11.45;;;;;;;-2.22;93.76;99775.81;1602852;89;25549;-48
2024/01/06 05:48:26;;;;;;;18.00;11.85;;;;;;;-2.24;93.61;99769.16;1630303;88;25607;-48
2024/01/06 05:50:53;;;;;;;20.92;12.07;;;;;;;-2.25;93.66;99765.67;1630428;88;25598;-48
2024/01/06 05:53:20;;;;;;;20.88;11.63;;;;;;;-2.26;93.65;99766.73;1603170;89;25505;-48
2024/01/06 05:55:46;;;;;;;23.12;11.68;;;;;;;-2.28;93.69;99771.47;1630444;88;27447;-48
2024/01/06 05:58:13;;;;;;;21.57;12.45;;;;;;;-2.29;93.74;99773.30;1603080;89;25451;-48
2024/01/06 06:00:40;;;;;;;21.17;11.75;;;;;;;-2.30;93.73;99780.16;1630527;88;25485;-47
2024/01/06 06:03:07;;;;;;;18.48;11.40;;;;;;;-2.31;93.78;99771.94;1603179;89;26147;-48
2024/01/06 06:05:34;;;;;;;25.17;12.07;;;;;;;-2.31;93.80;99766.11;1630529;88;25513;-48
2024/01/06 06:08:00;;;;;;;21.40;12.53;;;;;;;-2.32;93.76;99759.20;1630498;88;28086;-47
2024/01/06 06:10:40;;;;;;;18.90;11.30;;;;;;;-2.36;93.63;99770.52;1603118;89;25493;-47
2024/01/06 06:12:56;;;;;;;18.67;11.80;;;;;;;-2.38;93.72;99768.61;1628974;88;25386;-47
2024/01/06 06:15:22;;;;;;;23.07;12.35;;;;;;;-2.39;93.72;99778.94;1655906;86;25672;-49
2024/01/06 06:17:49;;;;;;;20.82;11.95;;;;;;;-2.42;93.77;99780.20;1655889;86;25402;-49
2024/01/06 06:20:15;;;;;;;23.40;12.82;;;;;;;-2.44;93.72;99784.93;1655838;86;27379;-49
2024/01/06 06:22:42;;;;;;;20.37;11.97;;;;;;;-2.45;93.87;99798.70;1655738;86;25577;-48
2024/01/06 06:25:09;;;;;;;22.65;12.70;;;;;;;-2.44;94.05;99788.37;1655845;86;25438;-52
2024/01/06 06:27:36;;;;;;;20.65;12.13;;;;;;;-2.45;94.00;99800.03;1655794;86;25429;-48
2024/01/06 06:30:04;;;;;;;20.23;12.23;;;;;;;-2.42;94.22;99813.30;1655828;86;25480;-48
2024/01/06 06:32:30;;;;;;;18.77;11.15;;;;;;;-2.40;94.27;99805.13;1657953;86;27331;-49
2024/01/06 06:34:57;;;;;;;21.35;12.88;;;;;;;-2.40;94.20;99799.33;1657868;86;25634;-48
2024/01/06 06:37:24;;;;;;;24.98;12.73;;;;;;;-2.40;94.10;99811.25;1657954;86;25492;-51
2024/01/06 06:39:50;;;;;;;21.07;11.90;;;;;;;-2.43;94.03;99809.06;1657930;86;26162;-48
2024/01/06 06:42:17;;;;;;;21.97;13.20;;;;;;;-2.41;94.13;99816.25;1658020;86;25457;-49
2024/01/06 06:44:43;;;;;;;22.35;12.65;;;;;;;-2.41;94.12;99815.45;1657989;86;27379;-48
2024/01/06 06:47:10;;;;;;;24.07;13.43;;;;;;;-2.41;94.17;99811.48;1657926;86;25506;-48
2024/01/06 06:49:36;;;;;;;23.65;12.98;;;;;;;-2.42;94.08;99815.95;1658033;86;25405;-50
2024/01/06 06:52:04;;;;;;;23.52;13.30;;;;;;;-2.42;94.13;99806.69;1657964;86;26316;-49
2024/01/06 06:54:30;;;;;;;22.85;13.38;;;;;;;-2.41;94.11;99808.84;1655835;86;25436;-49
2024/01/06 06:56:57;;;;;;;22.05;12.95;;;;;;;-2.40;94.23;99813.08;1655835;86;27410;-49
2024/01/06 06:59:24;;;;;;;22.55;13.38;;;;;;;-2.40;94.09;99819.70;1655671;86;25409;-47
2024/01/06 07:01:50;;;;;;;24.20;13.18;;;;;;;-2.42;94.02;99830.52;1655767;86;25409;-47
2024/01/06 07:04:17;;;;;;;22.90;13.03;;;;;;;-2.44;94.07;99830.75;1655731;86;25781;-47
2024/01/06 07:06:43;;;;;;;24.45;14.25;;;;;;;-2.41;94.06;99839.30;1655841;86;25421;-46
2024/01/06 07:09:09;;;;;;;22.77;13.75;;;;;;;-2.42;93.90;99843.77;1655802;86;27256;-48
2024/01/06 07:11:36;;;;;;;26.57;14.07;;;;;;;-2.42;94.04;99845.62;1655708;86;25461;-50
2024/01/06 07:14:02;;;;;;;21.02;13.25;;;;;;;-2.40;94.10;99853.63;1655823;86;25405;-47
2024/01/06 07:16:29;;;;;;;25.15;13.15;;;;;;;-2.41;94.07;99845.92;1655779;86;26336;-46
2024/01/06 07:18:56;;;;;;;23.45;12.88;;;;;;;-2.40;94.07;99845.69;1655753;85;25390;-47
2024/01/06 07:21:23;;;;;;;25.97;13.93;;;;;;;-2.38;94.09;99847.58;1655760;86;27383;-48
2024/01/06 07:23:49;;;;;;;23.32;12.60;;;;;;;-2.38;94.09;99843.60;1655734;86;25477;-48
2024/01/06 07:26:17;;;;;;;26.52;13.60;;;;;;;-2.35;94.22;99847.11;1655808;86;25404;-48
2024/01/06 07:28:43;;;;;;;21.65;13.35;;;;;;;-2.32;94.12;99843.17;1657932;86;25690;-48
2024/01/06 07:31:10;;;;;;;25.43;14.73;;;;;;;-2.31;94.17;99843.47;1657958;86;25402;-46
2024/01/06 07:33:37;;;;;;;21.77;12.82;;;;;;;-2.32;93.96;99839.20;1657951;85;27895;-48
2024/01/06 07:36:04;;;;;;;24.02;14.10;;;;;;;-2.34;93.85;99836.78;1657876;86;25420;-47
2024/01/06 07:38:31;;;;;;;25.15;14.40;;;;;;;-2.33;93.75;99834.43;1657904;86;25424;-47
2024/01/06 07:40:58;;;;;;;24.18;12.58;;;;;;;-2.34;93.74;99827.52;1657894;86;25589;-47
2024/01/06 07:43:24;;;;;;;23.77;13.18;;;;;;;-2.35;93.67;99829.07;1657987;86;25416;-46
2024/01/06 07:45:51;;;;;;;22.70;13.85;;;;;;;-2.35;93.87;99831.72;1658007;85;27390;-46
2024/01/06 07:48:18;;;;;;;21.10;13.05;;;;;;;-2.32;94.05;99837.88;1658042;85;25473;-46
2024/01/06 07:50:45;;;;;;;26.20;14.53;;;;;;;-2.31;93.98;99847.45;1658092;86;25443;-47
2024/01/06 07:53:13;;;;;;;32.33;13.60;;;;;;;-2.32;93.84;99842.65;1658029;86;25600;-46
2024/01/06 07:55:40;;;;;;;21.93;12.78;;;;;;;-2.30;93.91;99860.47;1655966;86;25414;-46
2024/01/06 07:58:07;;;;;;;21.07;12.90;;;;;;;-2.29;93.69;99870.53;1655950;86;27382;-47
2024/01/06 08:00:34;;;;;;;21.02;13.25;;;;;;;-2.28;93.69;99865.53;1655812;86;25487;-49
2024/01/06 08:03:00;;;;;;;23.15;12.33;;;;;;;-2.27;93.88;99874.55;1658124;85;25488;-47
2024/01/06 08:05:27;;;;;;;24.63;12.70;;;;;;;-2.24;93.86;99876.46;1658068;86;26040;-50
2024/01/06 08:07:54;;;;;;;19.20;11.48;;;;;;;-2.23;93.75;99878.87;1658115;86;25405;-50
2024/01/06 08:10:20;;;;;;;21.48;12.88;;;;;;;-2.23;93.72;99882.86;1658057;86;27901;-47
2024/01/06 08:12:48;;;;;;;19.27;12.10;;;;;;;-2.22;93.62;99885.77;1657994;86;25705;-46
2024/01/06 08:15:14;;;;;;;18.50;11.30;;;;;;;-2.19;93.80;99895.11;1655949;86;25433;-47
2024/01/06 08:17:41;;;;;;;21.68;12.00;;;;;;;-2.19;93.57;99889.81;1655959;86;25660;-46
2024/01/06 08:20:08;;;;;;;20.75;12.20;;;;;;;-2.19;93.60;99888.48;1650794;85;25481;-47
2024/01/06 08:22:35;;;;;;;20.62;12.18;;;;;;;-2.17;93.42;99889.84;1650205;87;27282;-48
2024/01/06 08:25:02;;;;;;;21.95;12.05;;;;;;;-2.15;93.83;99894.39;1650448;86;25474;-46
2024/01/06 08:27:29;;;;;;;22.07;12.20;;;;;;;-2.11;93.81;99888.09;1650273;86;25504;-47
2024/01/06 08:29:56;;;;;;;21.07;12.45;;;;;;;-2.10;93.81;99885.21;1594289;89;25566;-50
2024/01/06 08:32:22;;;;;;;18.37;11.38;;;;;;;-2.06;93.72;99886.87;1619041;88;25392;-46
2024/01/06 08:34:49;;;;;;;19.12;11.40;;;;;;;-2.03;93.65;99892.23;1592136;90;26979;-47
2024/01/06 08:37:15;;;;;;;19.52;11.08;;;;;;;-2.03;93.43;99893.03;1624755;88;25477;-46
2024/01/06 08:39:42;;;;;;;19.15;11.22;;;;;;;-2.04;93.18;99894.59;1631901;88;25455;-46
2024/01/06 08:42:09;;;;;;;19.40;11.80;;;;;;;-2.06;92.80;99906.75;1650212;87;25584;-46
2024/01/06 08:44:35;;;;;;;17.67;11.15;;;;;;;-2.07;93.11;99912.58;1649608;86;25453;-45
2024/01/06 08:47:02;;;;;;;18.40;10.85;;;;;;;-2.03;93.23;99914.77;1622281;88;28030;-47
2024/01/06 08:49:29;;;;;;;17.42;10.32;;;;;;;-2.03;93.24;99911.59;1650178;86;25558;-46
2024/01/06 08:51:56;;;;;;;16.93;10.30;;;;;;;-1.97;93.46;99921.79;1604543;89;25414;-47
2024/01/06 08:54:22;;;;;;;21.27;12.65;;;;;;;-1.96;93.57;99909.63;1636546;87;25619;-47
2024/01/06 08:56:50;;;;;;;21.10;10.98;;;;;;;-1.91;93.40;99914.20;1641560;87;25420;-48
2024/01/06 08:59:16;;;;;;;17.77;10.32;;;;;;;-1.92;93.28;99914.73;1613566;88;27341;-48
2024/01/06 09:01:43;;;;;;;20.70;11.25;;;;;;;-1.85;93.20;99926.53;1639622;87;25714;-48
2024/01/06 09:04:11;;;;;;;19.62;11.65;;;;;;;-1.85;92.89;99919.91;1650231;87;25422;-48
2024/01/06 09:06:37;;;;;;;16.82;10.30;;;;;;;-1.83;93.12;99922.32;1650179;86;26398;-50
2024/01/06 09:09:05;;;;;;;25.85;12.70;;;;;;;-1.82;92.88;99926.06;1604604;89;25470;-48
2024/01/06 09:11:32;;;;;;;18.25;10.72;;;;;;;-1.81;92.81;99926.86;1632151;87;28016;-47
2024/01/06 09:13:59;;;;;;;17.77;10.15;;;;;;;-1.81;92.77;99926.33;1604437;89;25487;-47
2024/01/06 09:16:25;;;;;;;17.82;10.43;;;;;;;-1.79;92.62;99930.08;1631873;87;25394;-47
2024/01/06 09:18:52;;;;;;;16.67;11.43;;;;;;;-1.81;92.71;99935.61;1650141;87;26187;-47
2024/01/06 09:21:18;;;;;;;20.20;11.05;;;;;;;-1.77;92.84;99938.59;1659412;86;25398;-47
2024/01/06 09:23:45;;;;;;;16.85;10.35;;;;;;;-1.75;92.82;99937.86;1660259;85;28064;-48
2024/01/06 09:26:11;;;;;;;17.05;9.78;;;;;;;-1.76;92.59;99933.59;1659843;86;25541;-48
2024/01/06 09:28:39;;;;;;;16.48;10.23;;;;;;;-1.76;92.46;99929.08;1660073;85;25495;-48
2024/01/06 09:31:05;;;;;;;17.62;9.78;;;;;;;-1.79;92.11;99930.08;1664824;85;25611;-49
2024/01/06 09:33:33;;;;;;;16.50;9.85;;;;;;;-1.79;92.25;99941.48;1659956;85;25550;-48
2024/01/06 09:36:01;;;;;;;15.03;9.98;;;;;;;-1.79;92.05;99949.44;1664617;85;27385;-47
2024/01/06 09:38:28;;;;;;;15.60;9.25;;;;;;;-1.82;91.95;99951.75;1659758;85;25502;-50
2024/01/06 09:40:57;;;;;;;16.45;9.00;;;;;;;-1.83;91.89;99947.51;1660131;85;25592;-49
2024/01/06 09:43:23;;;;;;;17.60;10.20;;;;;;;-1.84;91.96;99939.26;1664315;86;25716;-49
2024/01/06 09:45:57;;;;;;;17.30;9.78;;;;;;;-1.82;92.48;99935.34;1660078;85;25412;-47
2024/01/06 09:48:28;;;;;;;17.37;10.18;;;;;;;-1.78;92.61;99934.34;1664412;86;27299;-47
2024/01/06 09:50:57;;;;;;;15.58;9.18;;;;;;;-1.75;92.69;99948.47;1660540;85;25761;-47
2024/01/06 09:53:28;;;;;;;15.98;9.23;;;;;;;-1.77;92.17;99940.75;1664608;85;25432;-47
2024/01/06 09:55:56;;;;;;;14.78;8.58;;;;;;;-1.76;92.24;99938.89;1660179;85;25666;-47
2024/01/06 09:58:23;;;;;;;15.72;9.45;;;;;;;-1.75;91.96;99940.52;1659980;86;25487;-49
2024/01/06 10:00:49;;;;;;;12.50;8.30;;;;;;;-1.79;91.84;99940.69;1659946;86;27342;-48
2024/01/06 10:03:16;;;;;;;14.80;8.75;;;;;;;-1.77;92.04;99939.92;1659885;85;25627;-48
2024/01/06 10:05:42;;;;;;;16.02;8.75;;;;;;;-1.76;92.12;99927.75;1659986;85;25485;-48
2024/01/06 10:08:09;;;;;;;14.58;7.58;;;;;;;-1.74;92.23;99932.83;1659993;85;25615;-48
2024/01/06 10:10:36;;;;;;;13.55;8.58;;;;;;;-1.76;91.77;99936.23;1659949;86;25415;-50
2024/01/06 10:13:02;;;;;;;12.43;8.18;;;;;;;-1.76;92.00;99937.03;1664795;85;27342;-51
2024/01/06 10:15:29;;;;;;;12.85;7.97;;;;;;;-1.77;91.90;99939.42;1660215;85;25643;-52
2024/01/06 10:17:56;;;;;;;12.68;8.53;;;;;;;-1.76;92.08;99944.20;1660155;85;25593;-49
2024/01/06 10:20:22;;;;;;;12.70;8.15;;;;;;;-1.74;92.35;99945.59;1659929;85;25581;-49
2024/01/06 10:22:49;;;;;;;13.90;8.65;;;;;;;-1.75;92.12;99944.49;1648216;86;25487;-48
2024/01/06 10:25:16;;;;;;;14.10;8.05;;;;;;;-1.77;92.10;99942.08;1647821;87;27898;-50
2024/01/06 10:27:42;;;;;;;12.30;8.05;;;;;;;-1.79;91.86;99944.66;1647689;87;25476;-49
2024/01/06 10:30:10;;;;;;;14.10;8.43;;;;;;;-1.79;92.31;99942.80;1659929;86;25485;-51
2024/01/06 10:32:37;;;;;;;13.43;8.35;;;;;;;-1.77;92.49;99950.53;1647921;87;25620;-49
2024/01/06 10:35:06;;;;;;;13.38;8.33;;;;;;;-1.78;92.68;99952.38;1659877;86;25495;-49
2024/01/06 10:37:33;;;;;;;13.48;8.05;;;;;;;-1.74;92.86;99950.06;1620955;87;27393;-49
2024/01/06 10:40:18;;;;;;;13.93;8.33;;;;;;;-1.74;92.85;99947.41;1635669;87;25488;-50
2024/01/06 10:42:45;;;;;;;14.28;8.43;;;;;;;-1.72;92.95;99946.65;1635615;87;25473;-48
2024/01/06 10:45:14;;;;;;;14.80;8.55;;;;;;;-1.67;93.26;99952.05;1637074;87;25606;-48
2024/01/06 10:47:43;;;;;;;15.53;8.55;;;;;;;-1.63;93.35;99947.90;1647772;87;25486;-49
2024/01/06 10:50:10;;;;;;;14.83;8.13;;;;;;;-1.62;93.26;99949.49;1659610;86;27285;-48
2024/01/06 10:52:38;;;;;;;13.40;8.45;;;;;;;-1.60;93.12;99948.76;1647950;87;25495;-52
2024/01/06 10:55:06;;;;;;;14.45;9.83;;;;;;;-1.58;93.25;99952.50;1648175;87;25408;-50
2024/01/06 10:57:34;;;;;;;15.90;9.20;;;;;;;-1.56;93.36;99952.53;1647904;87;25546;-50
2024/01/06 11:00:00;;;;;;;14.30;10.13;;;;;;;-1.56;92.87;99955.72;1647973;87;25499;-49
2024/01/06 11:02:28;;;;;;;16.57;10.63;;;;;;;-1.56;93.16;99948.56;1647477;87;27572;-48
2024/01/06 11:04:54;;;;;;;20.75;12.40;;;;;;;-1.53;93.24;99948.09;1647897;87;25498;-49
2024/01/06 11:07:23;;;;;;;19.57;13.60;;;;;;;-1.46;93.79;99939.16;1647409;87;25397;-51
2024/01/06 11:10:05;;;;;;;20.20;12.47;;;;;;;-1.38;94.20;99936.13;1647905;87;26373;-49
2024/01/06 11:12:32;;;;;;;19.00;11.73;;;;;;;-1.29;94.22;99933.89;1634892;87;25534;-48
2024/01/06 11:14:59;;;;;;;14.68;11.03;;;;;;;-1.26;94.07;99930.27;1645244;87;27494;-49
2024/01/06 11:17:55;;;;;;;17.42;10.85;;;;;;;-1.21;93.67;99934.83;1647752;87;25403;-48